createdAt,value
2019-02-22T00:01:10.133Z,7.90
2019-02-22T00:03:38.446Z,7.80
2019-02-22T00:06:06.714Z,7.70
2019-02-22T00:08:34.949Z,7.80
2019-02-22T00:11:03.185Z,8.00
2019-02-22T00:13:31.449Z,7.90
2019-02-22T00:15:59.696Z,7.90
2019-02-22T00:18:27.967Z,7.80
2019-02-22T00:20:56.198Z,7.80
2019-02-22T00:23:24.514Z,7.70
2019-02-22T00:25:52.781Z,7.80
2019-02-22T00:28:21.095Z,7.80
2019-02-22T00:30:49.339Z,8.00
2019-02-22T00:33:17.596Z,7.90
2019-02-22T00:35:45.856Z,7.80
2019-02-22T00:38:14.183Z,7.80
2019-02-22T00:40:42.414Z,7.80
2019-02-22T00:43:10.663Z,7.80
2019-02-22T00:45:38.910Z,7.90
2019-02-22T00:48:07.177Z,7.80
2019-02-22T00:50:35.445Z,7.70
2019-02-22T00:53:03.692Z,7.80
2019-02-22T00:55:31.929Z,7.80
2019-02-22T00:58:00.176Z,7.70
2019-02-22T01:00:28.411Z,7.80
2019-02-22T01:02:56.661Z,7.80
2019-02-22T01:05:24.923Z,7.80
2019-02-22T01:07:53.186Z,7.90
2019-02-22T01:10:30.869Z,8.00
2019-02-22T01:12:51.411Z,8.00
2019-02-22T01:15:19.646Z,8.00
2019-02-22T01:17:47.894Z,8.10
2019-02-22T01:20:16.137Z,8.20
2019-02-22T01:22:44.382Z,8.20
2019-02-22T01:25:12.640Z,8.20
2019-02-22T01:28:00.333Z,8.20
2019-02-22T01:30:28.585Z,8.10
2019-02-22T01:32:56.833Z,8.10
2019-02-22T01:35:25.081Z,8.10
2019-02-22T01:37:53.321Z,8.20
2019-02-22T01:40:21.573Z,8.20
2019-02-22T01:42:49.833Z,8.20
2019-02-22T01:45:18.096Z,8.30
2019-02-22T01:47:46.325Z,8.30
2019-02-22T01:50:20.578Z,8.40
2019-02-22T01:52:48.839Z,8.30
2019-02-22T01:55:17.089Z,8.40
2019-02-22T01:57:45.337Z,8.20
2019-02-22T02:00:13.607Z,8.30
2019-02-22T02:02:41.892Z,8.30
2019-02-22T02:05:10.180Z,8.10
2019-02-22T02:07:38.423Z,8.10
2019-02-22T02:10:07.130Z,8.10
2019-02-22T02:12:57.444Z,8.10
2019-02-22T02:15:25.682Z,8.00
2019-02-22T02:17:53.941Z,8.10
2019-02-22T02:20:22.289Z,8.20
2019-02-22T02:22:50.534Z,8.40
2019-02-22T02:25:18.805Z,8.20
2019-02-22T02:27:47.064Z,8.10
2019-02-22T02:30:15.338Z,8.10
2019-02-22T02:32:43.623Z,8.30
2019-02-22T02:35:11.862Z,8.50
2019-02-22T02:37:40.117Z,8.50
2019-02-22T02:40:08.470Z,8.40
2019-02-22T02:42:36.727Z,8.20
2019-02-22T02:45:06.044Z,8.00
2019-02-22T02:47:34.356Z,8.10
2019-02-22T02:50:02.592Z,8.00
2019-02-22T02:52:30.826Z,8.00
2019-02-22T02:54:59.078Z,8.00
2019-02-22T02:57:27.340Z,8.10
2019-02-22T02:59:55.602Z,8.10
2019-02-22T03:02:25.198Z,8.20
2019-02-22T03:04:53.518Z,8.30
2019-02-22T03:07:26.251Z,8.30
2019-02-22T03:09:54.509Z,8.30
2019-02-22T03:12:22.777Z,8.30
2019-02-22T03:14:51.033Z,8.40
2019-02-22T03:17:19.296Z,8.40
2019-02-22T03:19:47.526Z,8.50
2019-02-22T03:22:15.789Z,8.50
2019-02-22T03:24:44.029Z,8.60
2019-02-22T03:27:12.283Z,8.50
2019-02-22T03:29:40.591Z,8.50
2019-02-22T03:32:08.841Z,8.50
2019-02-22T03:34:37.381Z,8.50
2019-02-22T03:37:05.626Z,8.50
2019-02-22T03:39:33.881Z,8.60
2019-02-22T03:42:02.194Z,8.50
2019-02-22T03:44:30.453Z,8.50
2019-02-22T03:46:58.709Z,8.60
2019-02-22T03:49:26.966Z,8.70
2019-02-22T03:51:55.299Z,8.70
2019-02-22T03:54:23.530Z,8.70
2019-02-22T03:56:51.775Z,8.70
2019-02-22T03:59:20.013Z,8.80
2019-02-22T04:01:48.261Z,8.60
2019-02-22T04:04:16.525Z,8.60
2019-02-22T04:06:44.774Z,8.70
2019-02-22T04:09:13.014Z,8.80
2019-02-22T04:11:45.592Z,8.80
2019-02-22T04:14:11.228Z,8.80
2019-02-22T04:16:39.552Z,8.80
2019-02-22T04:19:07.820Z,8.80
2019-02-22T04:21:36.135Z,8.90
2019-02-22T04:24:04.374Z,8.90
2019-02-22T04:26:32.622Z,8.80
2019-02-22T04:29:00.859Z,8.50
2019-02-22T04:31:29.134Z,8.20
2019-02-22T04:33:57.391Z,8.20
2019-02-22T04:36:25.653Z,8.20
2019-02-22T04:38:53.896Z,8.30
2019-02-22T04:41:22.196Z,8.30
2019-02-22T04:43:50.453Z,8.30
2019-02-22T04:46:38.186Z,8.20
2019-02-22T04:49:06.418Z,8.20
2019-02-22T04:51:34.673Z,8.20
2019-02-22T04:54:02.932Z,8.20
2019-02-22T04:56:31.160Z,8.10
2019-02-22T04:58:59.404Z,8.20
2019-02-22T05:01:27.709Z,8.10
2019-02-22T05:03:55.960Z,8.00
2019-02-22T05:06:24.198Z,8.10
2019-02-22T05:08:52.434Z,7.90
2019-02-22T05:11:20.701Z,7.60
2019-02-22T05:13:48.929Z,7.60
2019-02-22T05:16:18.089Z,7.70
2019-02-22T05:18:46.354Z,7.80
2019-02-22T05:21:14.609Z,7.80
2019-02-22T05:23:42.873Z,7.80
2019-02-22T05:26:11.107Z,7.80
2019-02-22T05:28:39.370Z,7.90
2019-02-22T05:31:07.625Z,7.70
2019-02-22T05:33:35.873Z,7.60
2019-02-22T05:36:04.145Z,7.60
2019-02-22T05:38:32.373Z,7.70
2019-02-22T05:41:00.635Z,7.70
2019-02-22T05:43:28.983Z,7.70
2019-02-22T05:45:57.281Z,7.70
2019-02-22T05:48:25.721Z,7.60
2019-02-22T05:50:54.057Z,7.60
2019-02-22T05:53:22.329Z,7.70
2019-02-22T05:55:50.577Z,7.70
2019-02-22T05:58:18.821Z,7.80
2019-02-22T06:00:47.081Z,7.80
2019-02-22T06:03:15.318Z,7.80
2019-02-22T06:05:43.898Z,7.80
2019-02-22T06:08:12.206Z,7.80
2019-02-22T06:10:40.443Z,7.60
2019-02-22T06:13:09.290Z,7.10
2019-02-22T06:15:37.526Z,7.00
2019-02-22T06:18:05.769Z,7.20
2019-02-22T06:20:34.158Z,7.20
2019-02-22T06:23:02.401Z,7.30
2019-02-22T06:25:30.672Z,7.30
2019-02-22T06:27:58.908Z,7.40
2019-02-22T06:30:27.160Z,7.40
2019-02-22T06:32:55.408Z,7.30
2019-02-22T06:35:23.661Z,6.90
2019-02-22T06:37:51.917Z,7.00
2019-02-22T06:40:20.150Z,7.00
2019-02-22T06:42:48.408Z,6.90
2019-02-22T06:45:16.646Z,6.90
2019-02-22T06:47:44.889Z,6.70
2019-02-22T06:50:13.144Z,6.60
2019-02-22T06:52:41.379Z,6.50
2019-02-22T06:55:09.630Z,6.40
2019-02-22T06:57:37.894Z,6.40
2019-02-22T07:00:11.562Z,6.20
2019-02-22T07:02:39.821Z,6.20
2019-02-22T07:05:08.326Z,6.30
2019-02-22T07:07:36.639Z,6.40
2019-02-22T07:10:08.094Z,6.40
2019-02-22T07:12:37.994Z,6.50
2019-02-22T07:15:07.481Z,6.60
2019-02-22T07:17:35.737Z,6.60
2019-02-22T07:20:05.886Z,6.70
2019-02-22T07:22:34.123Z,6.80
2019-02-22T07:25:02.370Z,6.70
2019-02-22T07:27:30.613Z,6.60
2019-02-22T07:29:58.878Z,6.70
2019-02-22T07:32:27.141Z,6.40
2019-02-22T07:34:55.381Z,6.50
2019-02-22T07:37:23.621Z,6.50
2019-02-22T07:39:51.875Z,6.50
2019-02-22T07:42:20.110Z,6.50
2019-02-22T07:44:48.368Z,6.50
2019-02-22T07:47:16.628Z,6.60
2019-02-22T07:49:44.881Z,6.70
2019-02-22T07:52:13.151Z,6.70
2019-02-22T07:54:41.378Z,6.50
2019-02-22T07:57:09.631Z,6.70
2019-02-22T07:59:37.869Z,6.70
2019-02-22T08:02:06.379Z,6.40
2019-02-22T08:04:34.645Z,6.50
2019-02-22T08:07:02.900Z,6.60
2019-02-22T08:09:31.141Z,6.60
2019-02-22T08:11:59.403Z,6.60
2019-02-22T08:14:27.706Z,6.50
2019-02-22T08:16:55.942Z,6.50
2019-02-22T08:19:24.209Z,6.50
2019-02-22T08:21:52.469Z,6.40
2019-02-22T08:24:20.715Z,6.30
2019-02-22T08:26:48.984Z,6.30
2019-02-22T08:29:17.219Z,6.40
2019-02-22T08:31:45.469Z,6.30
2019-02-22T08:34:13.698Z,6.20
2019-02-22T08:36:41.946Z,6.20
2019-02-22T08:39:10.201Z,6.30
2019-02-22T08:41:38.421Z,6.20
2019-02-22T08:44:06.688Z,6.20
2019-02-22T08:46:34.941Z,6.00
2019-02-22T08:49:03.203Z,6.00
2019-02-22T08:51:31.448Z,6.20
2019-02-22T08:53:59.686Z,6.10
2019-02-22T08:56:27.918Z,6.20
2019-02-22T08:58:56.166Z,6.20
2019-02-22T09:01:24.402Z,6.10
2019-02-22T09:03:52.653Z,6.00
2019-02-22T09:06:20.886Z,6.00
2019-02-22T09:08:49.152Z,6.00
2019-02-22T09:11:17.425Z,5.90
2019-02-22T09:13:45.685Z,6.00
2019-02-22T09:16:13.987Z,6.00
2019-02-22T09:18:42.213Z,5.90
2019-02-22T09:21:10.471Z,5.80
2019-02-22T09:23:38.702Z,5.50
2019-02-22T09:26:06.961Z,5.50
2019-02-22T09:28:35.203Z,5.50
2019-02-22T09:31:03.431Z,5.60
2019-02-22T09:33:31.677Z,5.60
2019-02-22T09:35:59.927Z,5.70
2019-02-22T09:38:28.182Z,5.80
2019-02-22T09:40:56.413Z,5.70
2019-02-22T09:43:24.668Z,5.80
2019-02-22T09:45:52.897Z,5.70
2019-02-22T09:48:21.323Z,5.80
2019-02-22T09:50:49.588Z,5.80
2019-02-22T09:53:17.841Z,5.90
2019-02-22T09:55:46.085Z,5.90
2019-02-22T09:58:14.343Z,5.90
2019-02-22T10:00:42.890Z,5.80
2019-02-22T10:03:11.162Z,5.90
2019-02-22T10:05:39.463Z,6.00
2019-02-22T10:08:07.733Z,6.00
2019-02-22T10:10:35.970Z,5.90
2019-02-22T10:13:04.220Z,5.90
2019-02-22T10:15:32.480Z,6.00
2019-02-22T10:18:00.803Z,5.70
2019-02-22T10:20:29.047Z,5.70
2019-02-22T10:22:57.301Z,5.90
2019-02-22T10:25:25.542Z,6.00
2019-02-22T10:27:53.781Z,6.00
2019-02-22T10:30:22.064Z,6.00
2019-02-22T10:32:50.286Z,6.10
2019-02-22T10:35:18.540Z,6.20
2019-02-22T10:37:46.772Z,6.20
2019-02-22T10:40:15.024Z,6.20
2019-02-22T10:42:43.315Z,6.20
2019-02-22T10:45:11.590Z,6.50
2019-02-22T10:47:40.181Z,6.50
2019-02-22T10:50:09.171Z,6.50
2019-02-22T10:52:37.425Z,6.40
2019-02-22T10:55:08.026Z,6.40
2019-02-22T10:57:36.249Z,6.40
2019-02-22T11:00:07.014Z,6.50
2019-02-22T11:02:35.314Z,6.30
2019-02-22T11:05:03.572Z,6.40
2019-02-22T11:07:31.829Z,6.30
2019-02-22T11:10:00.285Z,6.30
2019-02-22T11:12:28.563Z,6.40
2019-02-22T11:14:56.797Z,6.30
2019-02-22T11:17:25.060Z,6.40
2019-02-22T11:19:53.348Z,6.70
2019-02-22T11:22:21.717Z,6.90
2019-02-22T11:24:49.942Z,6.90
2019-02-22T11:27:18.166Z,6.80
2019-02-22T11:29:49.177Z,7.10
2019-02-22T11:32:16.815Z,7.20
2019-02-22T11:34:45.091Z,7.10
2019-02-22T11:37:13.334Z,7.10
2019-02-22T11:39:41.639Z,7.20
2019-02-22T11:42:09.921Z,7.20
2019-02-22T11:44:40.436Z,7.20
2019-02-22T11:47:08.182Z,7.20
2019-02-22T11:49:36.433Z,7.30
2019-02-22T11:52:04.753Z,7.40
2019-02-22T11:54:33.025Z,7.40
2019-02-22T11:57:01.250Z,7.50
2019-02-22T11:59:29.490Z,7.70
2019-02-22T12:01:57.734Z,8.00
2019-02-22T12:04:25.979Z,8.10
2019-02-22T12:06:54.233Z,8.20
2019-02-22T12:09:22.481Z,8.10
2019-02-22T12:11:50.738Z,8.20
2019-02-22T12:14:18.983Z,8.50
2019-02-22T12:16:47.240Z,8.30
2019-02-22T12:19:15.486Z,8.30
2019-02-22T12:21:43.744Z,8.40
2019-02-22T12:24:11.974Z,8.40
2019-02-22T12:26:40.211Z,8.60
2019-02-22T12:29:08.458Z,8.70
2019-02-22T12:31:36.712Z,8.60
2019-02-22T12:34:04.957Z,8.60
2019-02-22T12:36:33.265Z,8.90
2019-02-22T12:39:01.525Z,9.00
2019-02-22T12:41:29.787Z,9.10
2019-02-22T12:43:59.931Z,9.30
2019-02-22T12:46:27.979Z,9.40
2019-02-22T12:48:56.227Z,9.30
2019-02-22T12:51:24.476Z,9.40
2019-02-22T12:53:52.734Z,9.20
2019-02-22T12:56:27.517Z,9.40
2019-02-22T12:58:50.938Z,9.50
2019-02-22T13:01:19.169Z,9.70
2019-02-22T13:03:47.425Z,9.60
2019-02-22T13:06:15.675Z,9.50
2019-02-22T13:08:43.921Z,9.50
2019-02-22T13:11:12.181Z,9.60
2019-02-22T13:13:40.489Z,9.60
2019-02-22T13:16:08.754Z,9.90
2019-02-22T13:18:36.978Z,10.00
2019-02-22T13:21:05.226Z,9.90
2019-02-22T13:23:33.466Z,10.00
2019-02-22T13:26:01.723Z,10.00
2019-02-22T13:28:29.997Z,10.00
2019-02-22T13:30:58.231Z,10.10
2019-02-22T13:33:26.486Z,10.20
2019-02-22T13:35:54.734Z,10.20
2019-02-22T13:38:23.005Z,10.10
2019-02-22T13:40:51.261Z,10.20
2019-02-22T13:43:19.490Z,10.10
2019-02-22T13:45:47.737Z,10.20
2019-02-22T13:48:16.004Z,10.30
2019-02-22T13:50:44.399Z,10.50
2019-02-22T13:53:12.641Z,10.50
2019-02-22T13:55:40.909Z,10.50
2019-02-22T13:58:09.142Z,10.60
2019-02-22T14:00:37.389Z,10.80
2019-02-22T14:03:05.635Z,10.80
2019-02-22T14:05:33.904Z,10.90
2019-02-22T14:08:02.152Z,11.00
2019-02-22T14:10:30.411Z,11.10
2019-02-22T14:12:58.722Z,11.20
2019-02-22T14:15:37.466Z,11.30
2019-02-22T14:17:59.078Z,11.30
2019-02-22T14:20:27.318Z,11.20
2019-02-22T14:22:55.596Z,11.30
2019-02-22T14:25:23.845Z,11.30
2019-02-22T14:27:52.110Z,11.30
2019-02-22T14:30:20.432Z,11.30
2019-02-22T14:32:48.671Z,11.30
2019-02-22T14:35:16.937Z,11.30
2019-02-22T14:37:45.192Z,11.40
2019-02-22T14:40:13.999Z,11.60
2019-02-22T14:42:42.297Z,11.80
2019-02-22T14:45:11.696Z,11.80
2019-02-22T14:47:39.958Z,11.80
2019-02-22T14:50:11.274Z,11.80
2019-02-22T14:52:39.617Z,11.90
2019-02-22T14:55:08.498Z,12.00
2019-02-22T14:57:36.768Z,11.90
2019-02-22T15:00:11.151Z,11.90
2019-02-22T15:02:39.392Z,11.90
2019-02-22T15:05:09.261Z,12.00
2019-02-22T15:07:37.607Z,12.00
2019-02-22T15:10:07.979Z,11.90
2019-02-22T15:12:36.231Z,12.00
2019-02-22T15:15:07.946Z,12.00
2019-02-22T15:17:37.950Z,12.00
2019-02-22T15:20:08.154Z,11.90
2019-02-22T15:22:36.422Z,11.90
2019-02-22T15:25:08.204Z,12.00
2019-02-22T15:27:36.486Z,12.30
2019-02-22T15:30:07.887Z,12.40
2019-02-22T15:32:36.162Z,12.40
2019-02-22T15:35:07.202Z,12.50
2019-02-22T15:37:35.461Z,12.50
2019-02-22T15:40:05.744Z,12.50
2019-02-22T15:42:33.987Z,12.40
2019-02-22T15:45:02.265Z,12.30
2019-02-22T15:47:30.568Z,12.40
2019-02-22T15:49:58.819Z,12.50
2019-02-22T15:52:27.058Z,12.30
2019-02-22T15:54:55.306Z,12.20
2019-02-22T15:57:25.083Z,12.50
2019-02-22T15:59:53.583Z,12.40
2019-02-22T16:02:21.840Z,12.40
2019-02-22T16:04:51.745Z,12.30
2019-02-22T16:07:19.981Z,12.30
2019-02-22T16:09:49.106Z,12.30
2019-02-22T16:12:17.350Z,12.30
2019-02-22T16:14:45.592Z,12.30
2019-02-22T16:17:13.857Z,12.40
2019-02-22T16:19:42.086Z,12.20
2019-02-22T16:22:10.348Z,12.30
2019-02-22T16:24:38.601Z,12.40
2019-02-22T16:27:06.850Z,12.70
2019-02-22T16:29:35.105Z,12.80
2019-02-22T16:32:04.124Z,12.80
2019-02-22T16:34:42.838Z,12.60
2019-02-22T16:37:02.430Z,12.50
2019-02-22T16:39:30.694Z,12.40
2019-02-22T16:41:59.017Z,12.40
2019-02-22T16:44:27.274Z,12.40
2019-02-22T16:46:57.675Z,12.40
2019-02-22T16:49:25.492Z,12.50
2019-02-22T16:51:53.754Z,12.50
2019-02-22T16:54:21.994Z,12.60
2019-02-22T16:56:50.277Z,12.60
2019-02-22T16:59:18.548Z,12.50
2019-02-22T17:01:46.821Z,12.30
2019-02-22T17:04:15.093Z,12.30
2019-02-22T17:06:43.364Z,12.20
2019-02-22T17:09:11.626Z,12.10
2019-02-22T17:11:39.878Z,12.10
2019-02-22T17:14:08.138Z,12.00
2019-02-22T17:16:45.509Z,11.90
2019-02-22T17:19:06.389Z,11.70
2019-02-22T17:21:34.673Z,11.70
2019-02-22T17:24:02.944Z,11.60
2019-02-22T17:26:31.199Z,11.50
2019-02-22T17:28:59.453Z,11.50
2019-02-22T17:31:27.718Z,11.50
2019-02-22T17:33:55.978Z,11.40
2019-02-22T17:36:27.095Z,11.30
2019-02-22T17:38:54.221Z,11.10
2019-02-22T17:41:23.460Z,10.90
2019-02-22T17:43:51.838Z,10.90
2019-02-22T17:46:20.088Z,11.00
2019-02-22T17:48:48.338Z,11.00
2019-02-22T17:51:16.598Z,11.00
2019-02-22T17:53:44.862Z,11.00
2019-02-22T17:56:13.139Z,10.90
2019-02-22T17:58:41.496Z,10.70
2019-02-22T18:01:09.756Z,10.60
2019-02-22T18:03:38.025Z,10.60
2019-02-22T18:06:06.305Z,10.50
2019-02-22T18:08:34.650Z,10.50
2019-02-22T18:11:02.993Z,10.50
2019-02-22T18:13:31.237Z,10.40
2019-02-22T18:15:59.479Z,10.40
2019-02-22T18:18:27.746Z,10.40
2019-02-22T18:20:55.994Z,10.40
2019-02-22T18:23:24.264Z,10.30
2019-02-22T18:25:52.510Z,10.20
2019-02-22T18:28:22.061Z,10.20
2019-02-22T18:30:50.374Z,10.10
2019-02-22T18:33:18.664Z,10.10
2019-02-22T18:35:46.977Z,10.00
2019-02-22T18:38:15.451Z,10.00
2019-02-22T18:40:43.770Z,9.90
2019-02-22T18:43:12.028Z,9.90
2019-02-22T18:45:40.292Z,9.90
2019-02-22T18:48:08.546Z,9.90
2019-02-22T18:50:36.799Z,9.80
2019-02-22T18:53:05.045Z,9.80
2019-02-22T18:55:33.308Z,9.70
2019-02-22T18:58:01.564Z,9.60
2019-02-22T19:00:29.814Z,9.60
2019-02-22T19:02:58.082Z,9.80
2019-02-22T19:05:26.328Z,9.80
2019-02-22T19:07:54.582Z,9.60
2019-02-22T19:10:22.853Z,9.60
2019-02-22T19:12:51.113Z,9.50
2019-02-22T19:15:19.394Z,9.60
2019-02-22T19:17:47.664Z,9.60
2019-02-22T19:20:17.756Z,9.80
2019-02-22T19:22:45.990Z,10.00
2019-02-22T19:25:14.251Z,10.30
2019-02-22T19:27:42.524Z,10.40
2019-02-22T19:30:13.362Z,10.40
2019-02-22T19:32:41.614Z,10.30
2019-02-22T19:35:09.854Z,10.20
2019-02-22T19:37:38.115Z,10.30
2019-02-22T19:40:09.931Z,10.30
2019-02-22T19:42:38.186Z,10.30
2019-02-22T19:45:27.481Z,10.20
2019-02-22T19:47:55.750Z,10.20
2019-02-22T19:50:24.009Z,10.20
2019-02-22T19:52:53.264Z,10.10
2019-02-22T19:55:21.653Z,10.20
2019-02-22T19:57:49.990Z,10.30
2019-02-22T20:00:18.886Z,10.30
2019-02-22T20:02:47.149Z,10.10
2019-02-22T20:05:15.658Z,10.10
2019-02-22T20:07:43.917Z,10.10
2019-02-22T20:10:18.507Z,10.10
2019-02-22T20:12:47.167Z,10.00
2019-02-22T20:15:16.509Z,10.00
2019-02-22T20:17:53.277Z,10.00
2019-02-22T20:20:18.796Z,9.90
2019-02-22T20:22:47.046Z,9.90
2019-02-22T20:25:15.309Z,10.00
2019-02-22T20:27:43.573Z,10.00
2019-02-22T20:30:13.742Z,9.90
2019-02-22T20:32:42.019Z,9.80
2019-02-22T20:35:22.597Z,9.60
2019-02-22T20:37:53.068Z,9.40
2019-02-22T20:40:20.826Z,9.30
2019-02-22T20:42:49.072Z,9.10
2019-02-22T20:45:17.325Z,9.00
2019-02-22T20:47:45.566Z,8.90
2019-02-22T20:50:14.501Z,8.70
2019-02-22T20:52:42.747Z,8.60
2019-02-22T20:55:11.424Z,8.50
2019-02-22T20:57:39.672Z,8.50
2019-02-22T21:00:20.148Z,8.50
2019-02-22T21:02:48.416Z,8.30
2019-02-22T21:05:16.680Z,8.30
2019-02-22T21:07:44.938Z,8.20
2019-02-22T21:10:15.278Z,8.10
2019-02-22T21:12:43.536Z,8.10
2019-02-22T21:15:13.019Z,8.00
2019-02-22T21:17:41.319Z,8.00
2019-02-22T21:20:11.610Z,8.00
2019-02-22T21:22:39.872Z,7.90
2019-02-22T21:25:09.903Z,7.80
2019-02-22T21:27:38.160Z,7.80
2019-02-22T21:30:14.931Z,7.80
2019-02-22T21:32:43.158Z,7.80
2019-02-22T21:35:11.426Z,7.70
2019-02-22T21:37:41.278Z,7.70
2019-02-22T21:40:10.651Z,7.70
2019-02-22T21:42:38.922Z,7.70
2019-02-22T21:45:12.961Z,7.50
2019-02-22T21:47:41.284Z,7.40
2019-02-22T21:50:18.438Z,7.40
2019-02-22T21:52:46.687Z,7.40
2019-02-22T21:55:15.579Z,7.40
2019-02-22T21:57:43.942Z,7.30
2019-02-22T22:00:15.318Z,7.30
2019-02-22T22:02:43.593Z,7.30
2019-02-22T22:05:11.821Z,7.30
2019-02-22T22:07:40.077Z,7.20
2019-02-22T22:10:12.064Z,7.20
2019-02-22T22:12:40.555Z,7.20
2019-02-22T22:15:11.045Z,7.10
2019-02-22T22:17:39.330Z,7.00
2019-02-22T22:20:08.908Z,7.00
2019-02-22T22:22:37.138Z,6.90
2019-02-22T22:25:07.929Z,6.90
2019-02-22T22:27:37.638Z,6.90
2019-02-22T22:30:11.466Z,6.80
2019-02-22T22:32:39.734Z,6.70
2019-02-22T22:35:10.318Z,6.70
2019-02-22T22:37:39.018Z,6.60
2019-02-22T22:40:09.194Z,6.60
2019-02-22T22:42:37.462Z,6.50
2019-02-22T22:45:08.817Z,6.50
2019-02-22T22:47:37.056Z,6.50
2019-02-22T22:50:08.283Z,6.50
2019-02-22T22:52:36.531Z,6.50
2019-02-22T22:55:06.386Z,6.50
2019-02-22T22:57:34.650Z,6.40
2019-02-22T23:00:12.382Z,6.40
2019-02-22T23:02:45.295Z,6.40
2019-02-22T23:05:14.168Z,6.40
2019-02-22T23:07:43.090Z,6.30
2019-02-22T23:10:11.356Z,6.30
2019-02-22T23:12:39.691Z,6.30
2019-02-22T23:15:08.057Z,6.20
2019-02-22T23:17:36.305Z,6.20
2019-02-22T23:20:06.581Z,6.20
2019-02-22T23:22:34.814Z,6.10
2019-02-22T23:25:03.064Z,6.10
2019-02-22T23:27:31.324Z,6.00
2019-02-22T23:29:59.591Z,6.00
2019-02-22T23:32:27.890Z,5.90
2019-02-22T23:34:56.151Z,5.90
2019-02-22T23:37:24.385Z,5.90
2019-02-22T23:39:52.629Z,5.80
2019-02-22T23:42:20.896Z,5.80
2019-02-22T23:44:49.220Z,5.80
2019-02-22T23:47:17.472Z,5.70
2019-02-22T23:49:45.728Z,5.80
2019-02-22T23:52:13.955Z,5.70
2019-02-22T23:54:42.230Z,5.70
2019-02-22T23:57:10.499Z,5.70
2019-02-22T23:59:38.816Z,5.60
